createdAt,value
2022-11-16T00:00:10.542Z,66.82
2022-11-16T00:03:34.923Z,66.72
2022-11-16T00:06:40.573Z,66.73
2022-11-16T00:09:43.844Z,66.21
2022-11-16T00:12:47.612Z,66.47
2022-11-16T00:15:57.907Z,66.29
2022-11-16T00:19:06.401Z,66.27
2022-11-16T00:22:11.137Z,66.19
2022-11-16T00:25:15.219Z,66.03
2022-11-16T00:28:19.087Z,65.69
2022-11-16T00:31:24.413Z,66.54
2022-11-16T00:34:27.852Z,66.09
2022-11-16T00:37:33.017Z,65.99
2022-11-16T00:40:36.324Z,65.97
2022-11-16T00:43:40.491Z,65.96
2022-11-16T00:46:44.510Z,65.88
2022-11-16T00:49:48.384Z,65.70
2022-11-16T00:52:54.952Z,65.54
2022-11-16T00:55:59.961Z,65.92
2022-11-16T00:59:05.608Z,65.66
2022-11-16T01:02:09.648Z,65.67
2022-11-16T01:05:15.272Z,65.97
2022-11-16T01:08:20.627Z,65.25
2022-11-16T01:11:37.971Z,65.34
2022-11-16T01:14:45.185Z,65.56
2022-11-16T01:17:49.358Z,65.39
2022-11-16T01:20:54.380Z,65.35
2022-11-16T01:23:59.093Z,65.18
2022-11-16T01:27:02.924Z,65.21
2022-11-16T01:30:13.619Z,65.25
2022-11-16T01:33:23.398Z,65.24
2022-11-16T01:36:27.570Z,65.07
2022-11-16T01:39:34.542Z,65.06
2022-11-16T01:42:39.379Z,65.30
2022-11-16T01:45:43.429Z,65.13
2022-11-16T01:48:55.796Z,65.12
2022-11-16T01:52:05.610Z,65.24
2022-11-16T01:55:14.224Z,65.07
2022-11-16T01:58:28.690Z,65.31
2022-11-16T02:01:38.353Z,65.32
2022-11-16T02:04:43.256Z,64.96
2022-11-16T02:08:35.548Z,65.00
2022-11-16T02:12:09.768Z,64.77
2022-11-16T02:15:26.394Z,64.86
2022-11-16T02:18:53.724Z,65.06
2022-11-16T02:22:15.863Z,64.80
2022-11-16T02:25:31.861Z,64.83
2022-11-16T02:28:53.366Z,65.06
2022-11-16T02:32:10.008Z,64.78
2022-11-16T02:35:21.687Z,64.92
2022-11-16T02:38:33.233Z,64.87
2022-11-16T02:41:43.935Z,64.97
2022-11-16T02:44:55.436Z,65.01
2022-11-16T02:48:10.159Z,64.74
2022-11-16T02:51:15.937Z,65.00
2022-11-16T02:54:23.765Z,64.81
2022-11-16T02:57:45.525Z,64.77
2022-11-16T03:01:01.648Z,64.82
2022-11-16T03:04:18.459Z,64.98
2022-11-16T03:07:30.563Z,64.86
2022-11-16T03:10:57.860Z,64.92
2022-11-16T03:14:08.989Z,64.86
2022-11-16T03:17:23.019Z,64.80
2022-11-16T03:20:33.283Z,64.50
2022-11-16T03:23:37.026Z,64.92
2022-11-16T03:26:51.947Z,64.64
2022-11-16T03:30:06.198Z,65.02
2022-11-16T03:33:20.569Z,64.80
2022-11-16T03:36:33.623Z,64.60
2022-11-16T03:39:40.537Z,64.52
2022-11-16T03:42:49.463Z,65.07
2022-11-16T03:45:53.282Z,64.51
2022-11-16T03:49:01.840Z,64.71
2022-11-16T03:52:10.398Z,64.78
2022-11-16T03:55:13.843Z,64.67
2022-11-16T03:58:19.446Z,64.85
2022-11-16T04:01:23.566Z,64.60
2022-11-16T04:04:44.616Z,64.59
2022-11-16T04:08:08.062Z,64.79
2022-11-16T04:11:32.584Z,64.79
2022-11-16T04:14:54.396Z,64.57
2022-11-16T04:18:16.410Z,64.48
2022-11-16T04:21:44.565Z,64.60
2022-11-16T04:24:55.872Z,64.59
2022-11-16T04:28:16.456Z,64.83
2022-11-16T04:31:42.881Z,64.50
2022-11-16T04:35:05.911Z,64.62
2022-11-16T04:38:09.215Z,64.62
2022-11-16T04:41:28.982Z,64.64
2022-11-16T04:44:54.263Z,64.74
2022-11-16T04:48:00.169Z,64.92
2022-11-16T04:51:07.558Z,64.70
2022-11-16T04:54:12.032Z,64.64
2022-11-16T04:57:16.862Z,64.44
2022-11-16T05:00:22.713Z,64.26
2022-11-16T05:03:26.622Z,64.19
2022-11-16T05:06:30.090Z,64.42
2022-11-16T05:09:33.181Z,64.23
2022-11-16T05:12:38.879Z,64.33
2022-11-16T05:15:46.492Z,64.33
2022-11-16T05:19:10.344Z,64.49
2022-11-16T05:22:13.089Z,64.24
2022-11-16T05:25:17.181Z,64.35
2022-11-16T05:28:21.631Z,64.17
2022-11-16T05:31:25.404Z,64.30
2022-11-16T05:34:29.347Z,64.27
2022-11-16T05:37:32.944Z,64.14
2022-11-16T05:40:35.968Z,63.87
2022-11-16T05:43:41.062Z,63.88
2022-11-16T05:46:50.613Z,63.94
2022-11-16T05:49:55.531Z,63.74
2022-11-16T05:53:00.803Z,63.77
2022-11-16T05:56:04.869Z,63.83
2022-11-16T05:59:16.584Z,64.34
2022-11-16T06:02:21.208Z,64.22
2022-11-16T06:05:24.893Z,64.19
2022-11-16T06:08:29.281Z,64.17
2022-11-16T06:11:37.542Z,63.80
2022-11-16T06:14:43.671Z,63.96
2022-11-16T06:17:46.854Z,63.83
2022-11-16T06:20:50.461Z,63.72
2022-11-16T06:23:56.262Z,63.46
2022-11-16T06:26:59.897Z,63.38
2022-11-16T06:30:06.156Z,63.42
2022-11-16T06:33:10.104Z,63.25
2022-11-16T06:36:14.494Z,63.42
2022-11-16T06:39:18.165Z,63.21
2022-11-16T06:42:22.948Z,62.89
2022-11-16T06:45:28.485Z,62.98
2022-11-16T06:48:34.768Z,63.03
2022-11-16T06:51:41.226Z,63.05
2022-11-16T06:54:45.014Z,62.90
2022-11-16T06:57:48.864Z,62.66
2022-11-16T07:00:53.979Z,62.29
2022-11-16T07:03:57.946Z,62.31
2022-11-16T07:07:01.459Z,61.98
2022-11-16T07:10:06.081Z,61.70
2022-11-16T07:13:09.027Z,61.79
2022-11-16T07:16:16.647Z,61.42
2022-11-16T07:19:26.665Z,61.47
2022-11-16T07:22:30.386Z,61.50
2022-11-16T07:25:35.082Z,61.19
2022-11-16T07:28:45.037Z,61.70
2022-11-16T07:31:53.830Z,61.96
2022-11-16T07:35:12.643Z,62.32
2022-11-16T07:38:18.181Z,61.97
2022-11-16T07:41:22.619Z,62.15
2022-11-16T07:44:35.831Z,62.26
2022-11-16T07:47:47.954Z,62.24
2022-11-16T07:51:02.964Z,62.41
2022-11-16T07:54:08.267Z,62.24
2022-11-16T07:57:11.624Z,62.50
2022-11-16T08:00:19.128Z,62.45
2022-11-16T08:03:32.122Z,62.39
2022-11-16T08:06:35.843Z,62.49
2022-11-16T08:09:40.890Z,62.25
2022-11-16T08:12:48.188Z,62.14
2022-11-16T08:15:53.590Z,62.46
2022-11-16T08:18:59.263Z,62.39
2022-11-16T08:22:02.640Z,62.38
2022-11-16T08:25:09.481Z,62.21
2022-11-16T08:28:14.632Z,62.37
2022-11-16T08:31:24.808Z,61.99
2022-11-16T08:34:35.353Z,62.66
2022-11-16T08:37:40.791Z,63.03
2022-11-16T08:40:46.765Z,63.03
2022-11-16T08:43:53.246Z,63.43
2022-11-16T08:46:58.327Z,63.61
2022-11-16T08:50:11.434Z,63.56
2022-11-16T08:53:15.527Z,63.64
2022-11-16T08:56:20.284Z,63.95
2022-11-16T08:59:23.956Z,63.63
2022-11-16T09:02:31.594Z,63.71
2022-11-16T09:05:36.462Z,63.65
2022-11-16T09:08:43.929Z,63.65
2022-11-16T09:11:47.404Z,63.65
2022-11-16T09:14:51.055Z,63.79
2022-11-16T09:17:55.057Z,63.51
2022-11-16T09:21:00.465Z,63.54
2022-11-16T09:24:04.022Z,63.40
2022-11-16T09:27:07.844Z,63.46
2022-11-16T09:30:12.773Z,63.46
2022-11-16T09:33:16.861Z,63.50
2022-11-16T09:36:21.607Z,63.44
2022-11-16T09:39:31.040Z,63.64
2022-11-16T09:42:58.524Z,63.31
2022-11-16T09:46:21.724Z,63.02
2022-11-16T09:49:29.985Z,63.47
2022-11-16T09:52:42.688Z,63.49
2022-11-16T09:55:52.060Z,63.14
2022-11-16T09:59:05.073Z,63.05
2022-11-16T10:02:25.050Z,63.01
2022-11-16T10:05:38.489Z,62.94
2022-11-16T10:08:47.894Z,63.02
2022-11-16T10:12:11.415Z,62.59
2022-11-16T10:15:43.212Z,62.59
2022-11-16T10:18:59.187Z,62.89
2022-11-16T10:22:22.715Z,63.07
2022-11-16T10:25:43.522Z,62.99
2022-11-16T10:29:14.952Z,62.83
2022-11-16T10:32:28.240Z,62.66
2022-11-16T10:35:40.335Z,62.36
2022-11-16T10:38:45.559Z,62.29
2022-11-16T10:41:51.478Z,62.19
2022-11-16T10:45:07.539Z,62.50
2022-11-16T10:48:32.505Z,61.85
2022-11-16T10:51:36.497Z,62.14
2022-11-16T10:54:44.052Z,61.82
2022-11-16T10:58:02.020Z,61.45
2022-11-16T11:01:12.259Z,61.30
2022-11-16T11:04:25.087Z,61.18
2022-11-16T11:07:33.677Z,61.35
2022-11-16T11:10:40.294Z,61.19
2022-11-16T11:13:45.119Z,61.08
2022-11-16T11:16:53.953Z,60.96
2022-11-16T11:20:00.857Z,61.16
2022-11-16T11:23:15.170Z,61.15
2022-11-16T11:26:36.899Z,60.99
2022-11-16T11:29:44.106Z,61.21
2022-11-16T11:32:49.579Z,60.99
2022-11-16T11:36:08.485Z,60.83
2022-11-16T11:39:31.742Z,60.75
2022-11-16T11:42:35.760Z,61.13
2022-11-16T11:45:50.211Z,60.92
2022-11-16T11:49:05.903Z,60.91
2022-11-16T11:52:19.011Z,60.70
2022-11-16T11:55:22.909Z,60.74
2022-11-16T11:58:32.870Z,60.51
2022-11-16T12:02:06.407Z,60.37
2022-11-16T12:05:48.114Z,60.42
2022-11-16T12:09:14.654Z,60.38
2022-11-16T12:12:42.207Z,60.38
2022-11-16T12:16:08.853Z,60.21
2022-11-16T12:19:56.386Z,60.32
2022-11-16T12:23:32.893Z,60.10
2022-11-16T12:26:55.450Z,60.31
2022-11-16T12:30:11.455Z,60.13
2022-11-16T12:33:36.848Z,60.23
2022-11-16T12:37:01.032Z,59.83
2022-11-16T12:40:33.023Z,59.85
2022-11-16T12:43:49.418Z,59.71
2022-11-16T12:47:05.556Z,59.98
2022-11-16T12:50:33.548Z,59.84
2022-11-16T12:54:11.216Z,59.84
2022-11-16T12:57:26.058Z,60.03
2022-11-16T13:00:39.725Z,60.23
2022-11-16T13:03:53.744Z,60.76
2022-11-16T13:07:10.919Z,61.39
2022-11-16T13:10:22.724Z,61.25
2022-11-16T13:13:36.453Z,61.67
2022-11-16T13:16:41.704Z,61.81
2022-11-16T13:20:15.495Z,61.50
2022-11-16T13:23:44.405Z,61.63
2022-11-16T13:27:00.090Z,61.58
2022-11-16T13:30:17.395Z,61.78
2022-11-16T13:33:34.875Z,61.39
2022-11-16T13:36:47.724Z,61.25
2022-11-16T13:40:15.042Z,60.90
2022-11-16T13:43:23.024Z,60.83
2022-11-16T13:46:58.948Z,60.50
2022-11-16T13:50:06.740Z,60.43
2022-11-16T13:56:52.584Z,60.15
2022-11-16T14:00:12.625Z,59.67
2022-11-16T14:03:39.370Z,59.64
2022-11-16T14:07:00.762Z,59.60
2022-11-16T14:10:08.079Z,59.76
2022-11-16T14:13:40.739Z,59.34
2022-11-16T14:16:51.381Z,59.30
2022-11-16T14:19:56.025Z,59.77
2022-11-16T14:23:17.318Z,59.43
2022-11-16T14:26:34.112Z,59.45
2022-11-16T14:29:53.995Z,59.54
2022-11-16T14:33:00.035Z,59.36
2022-11-16T14:36:09.429Z,59.56
2022-11-16T14:39:30.808Z,59.04
2022-11-16T14:43:01.837Z,59.31
2022-11-16T14:46:22.023Z,59.20
2022-11-16T14:49:30.203Z,59.07
2022-11-16T14:52:41.208Z,58.70
2022-11-16T14:55:46.245Z,58.79
2022-11-16T14:58:55.961Z,58.76
2022-11-16T15:02:08.995Z,58.61
2022-11-16T15:05:18.951Z,58.45
2022-11-16T15:08:31.961Z,58.65
2022-11-16T15:11:58.557Z,58.38
2022-11-16T15:15:08.493Z,58.59
2022-11-16T15:18:18.243Z,58.38
2022-11-16T15:21:25.328Z,58.45
2022-11-16T15:24:32.347Z,58.28
2022-11-16T15:27:41.099Z,58.06
2022-11-16T15:30:49.836Z,58.10
2022-11-16T15:33:53.863Z,58.04
2022-11-16T15:36:58.924Z,58.64
2022-11-16T15:40:03.531Z,57.92
2022-11-16T15:43:09.004Z,57.75
2022-11-16T15:46:15.878Z,57.67
2022-11-16T15:49:30.399Z,57.80
2022-11-16T15:52:55.467Z,57.72
2022-11-16T15:55:59.014Z,57.91
2022-11-16T15:59:14.269Z,57.75
2022-11-16T16:02:23.173Z,57.61
2022-11-16T16:05:36.746Z,57.54
2022-11-16T16:08:41.962Z,57.67
2022-11-16T16:11:45.477Z,57.66
2022-11-16T16:14:50.748Z,57.60
2022-11-16T16:17:55.922Z,57.56
2022-11-16T16:21:00.176Z,57.43
2022-11-16T16:24:05.234Z,57.12
2022-11-16T16:27:19.189Z,57.38
2022-11-16T16:30:22.979Z,58.01
2022-11-16T16:33:28.801Z,57.75
2022-11-16T16:36:32.282Z,57.32
2022-11-16T16:39:38.797Z,57.42
2022-11-16T16:42:42.957Z,57.57
2022-11-16T16:45:46.528Z,57.74
2022-11-16T16:48:50.135Z,57.61
2022-11-16T16:51:54.586Z,57.80
2022-11-16T16:54:59.629Z,57.87
2022-11-16T16:58:03.183Z,57.87
2022-11-16T17:01:07.217Z,57.80
2022-11-16T17:04:10.561Z,57.91
2022-11-16T17:07:14.532Z,57.86
2022-11-16T17:10:19.516Z,58.23
2022-11-16T17:13:23.263Z,58.84
2022-11-16T17:16:27.156Z,59.22
2022-11-16T17:19:31.483Z,59.77
2022-11-16T17:22:35.714Z,59.83
2022-11-16T17:25:40.755Z,60.23
2022-11-16T17:28:44.374Z,60.43
2022-11-16T17:31:48.843Z,60.96
2022-11-16T17:34:52.334Z,60.61
2022-11-16T17:37:55.986Z,60.90
2022-11-16T17:41:06.920Z,61.05
2022-11-16T17:44:10.888Z,60.85
2022-11-16T17:47:14.734Z,60.76
2022-11-16T17:50:18.689Z,60.80
2022-11-16T17:53:22.231Z,60.83
2022-11-16T17:56:29.151Z,60.61
2022-11-16T17:59:32.925Z,61.01
2022-11-16T18:02:36.863Z,61.09
2022-11-16T18:05:40.223Z,60.99
2022-11-16T18:08:45.111Z,61.13
2022-11-16T18:11:51.526Z,61.04
2022-11-16T18:15:26.350Z,60.99
2022-11-16T18:18:18.815Z,61.41
2022-11-16T18:21:23.000Z,61.25
2022-11-16T18:24:26.375Z,61.10
2022-11-16T18:27:31.535Z,61.17
2022-11-16T18:30:35.047Z,61.39
2022-11-16T18:33:40.005Z,60.89
2022-11-16T18:36:43.255Z,61.27
2022-11-16T18:39:46.857Z,61.54
2022-11-16T18:42:52.334Z,61.33
2022-11-16T18:45:55.886Z,61.20
2022-11-16T18:49:00.818Z,61.22
2022-11-16T18:52:04.899Z,61.33
2022-11-16T18:55:09.273Z,61.41
2022-11-16T18:58:43.386Z,62.11
2022-11-16T19:01:38.405Z,62.46
2022-11-16T19:04:42.718Z,62.31
2022-11-16T19:07:46.979Z,62.27
2022-11-16T19:10:50.698Z,62.54
2022-11-16T19:14:00.949Z,62.58
2022-11-16T19:17:05.306Z,62.44
2022-11-16T19:20:10.773Z,62.35
2022-11-16T19:23:14.435Z,61.94
2022-11-16T19:26:24.109Z,61.86
2022-11-16T19:29:29.432Z,61.78
2022-11-16T19:32:33.469Z,61.55
2022-11-16T19:35:38.390Z,61.83
2022-11-16T19:38:42.637Z,61.56
2022-11-16T19:41:46.403Z,61.25
2022-11-16T19:44:51.177Z,61.34
2022-11-16T19:47:57.263Z,61.34
2022-11-16T19:51:06.624Z,60.92
2022-11-16T19:54:13.853Z,61.35
2022-11-16T19:57:20.468Z,61.60
2022-11-16T20:00:25.857Z,62.30
2022-11-16T20:03:29.252Z,62.68
2022-11-16T20:06:35.926Z,62.80
2022-11-16T20:09:39.433Z,62.99
2022-11-16T20:12:43.572Z,62.93
2022-11-16T20:15:48.307Z,62.79
2022-11-16T20:18:53.869Z,63.15
2022-11-16T20:21:59.469Z,62.77
2022-11-16T20:25:03.115Z,62.83
2022-11-16T20:28:06.359Z,62.96
2022-11-16T20:31:16.092Z,64.17
2022-11-16T20:34:21.986Z,64.88
2022-11-16T20:37:25.633Z,64.53
2022-11-16T20:40:28.914Z,64.32
2022-11-16T20:43:32.576Z,64.03
2022-11-16T20:46:38.436Z,63.94
2022-11-16T20:49:42.381Z,63.92
2022-11-16T20:52:51.421Z,63.34
2022-11-16T20:55:57.526Z,63.06
2022-11-16T20:59:01.608Z,63.40
2022-11-16T21:02:06.777Z,63.08
2022-11-16T21:05:10.859Z,63.70
2022-11-16T21:08:14.972Z,63.19
2022-11-16T21:11:20.991Z,63.50
2022-11-16T21:14:23.886Z,63.82
2022-11-16T21:17:28.435Z,64.12
2022-11-16T21:20:32.171Z,64.35
2022-11-16T21:23:37.588Z,64.29
2022-11-16T21:26:41.493Z,64.24
2022-11-16T21:29:45.014Z,64.51
2022-11-16T21:32:50.448Z,64.24
2022-11-16T21:35:55.016Z,64.54
2022-11-16T21:38:59.705Z,64.64
2022-11-16T21:42:03.347Z,64.16
2022-11-16T21:45:10.491Z,64.15
2022-11-16T21:48:15.773Z,64.08
2022-11-16T21:51:21.633Z,64.09
2022-11-16T21:54:45.203Z,64.11
2022-11-16T21:57:49.455Z,64.22
2022-11-16T22:00:55.936Z,63.52
2022-11-16T22:04:18.415Z,64.16
2022-11-16T22:07:33.844Z,64.15
2022-11-16T22:10:37.667Z,64.01
2022-11-16T22:13:42.470Z,63.92
2022-11-16T22:16:46.613Z,63.98
2022-11-16T22:19:51.471Z,63.97
2022-11-16T22:22:54.906Z,64.14
2022-11-16T22:26:03.910Z,64.00
2022-11-16T22:29:07.822Z,64.32
2022-11-16T22:32:11.935Z,64.18
2022-11-16T22:35:17.205Z,64.31
2022-11-16T22:38:20.420Z,63.96
2022-11-16T22:41:24.099Z,63.91
2022-11-16T22:44:27.322Z,63.68
2022-11-16T22:47:30.833Z,63.66
2022-11-16T22:50:35.624Z,63.36
2022-11-16T22:53:39.363Z,63.32
2022-11-16T22:56:43.432Z,63.24
2022-11-16T22:59:47.154Z,63.13
2022-11-16T23:02:50.498Z,63.12
2022-11-16T23:05:55.440Z,62.56
2022-11-16T23:08:58.783Z,62.62
2022-11-16T23:12:20.267Z,62.64
2022-11-16T23:15:41.202Z,62.72
2022-11-16T23:18:44.870Z,62.51
2022-11-16T23:22:06.986Z,63.44
2022-11-16T23:25:30.680Z,65.80
2022-11-16T23:28:36.673Z,66.09
2022-11-16T23:31:40.285Z,66.75
2022-11-16T23:34:43.460Z,67.05
2022-11-16T23:37:57.241Z,67.55
2022-11-16T23:41:20.745Z,67.71
2022-11-16T23:44:23.541Z,67.92
2022-11-16T23:47:27.194Z,67.92
2022-11-16T23:50:31.083Z,67.38
2022-11-16T23:53:36.195Z,66.83
2022-11-16T23:56:40.171Z,67.25
2022-11-16T23:59:43.409Z,66.94
